Have a Safe July 4th! 

Flight Track Log - Related Links

Times and Time Zones

All times are in EDT time to prevent confusion due to time zone crossing. See the DAL3691 flight status page for this flight to view local times or setup timezone preferences in your user account.

Time Position Orientation Groundspeed Altitude Reporting Facility
EDT Latitude Longitude Course Direction KTS MPH feet Rate Location/Type
Sun 07:19:18 PM 40.6367 -73.8339 146° Southeast 154 177 2,100  Level New York Center
Sun 07:20:19 PM 40.6061 -73.8792 228° Southwest 213 245 4,500 2,410 Climbing New York Center
Sun 07:21:00 PM 40.4039 -73.5539 143° Southeast  Level FlightAware Approximate
Sun 07:21:20 PM 40.5583 -73.8003 129° Southeast 193 222 7,000  Level New York Center
Sun 07:22:00 PM 40.3251 -73.4917 143° Southeast  Level FlightAware Approximate
Sun 07:22:18 PM 40.5439 -73.7042 101° East 236 272 7,100  Level New York Center
Sun 07:23:00 PM 40.2584 -73.4169 123° Southeast  Level FlightAware Approximate
Sun 07:24:00 PM 40.1850 -73.3403 146° Southeast  Level FlightAware Approximate
Sun 07:24:04 PM 40.4236 -73.5781 141° Southeast 278 320 10,800  Level Washington Center
Sun 07:25:04 PM 40.3472 -73.5039 143° Southeast 317 365 12,700 1,835 Climbing Washington Center
Sun 07:26:05 PM 40.2647 -73.4275 145° Southeast 349 402 14,500 1,785 Climbing Washington Center
Sun 07:27:05 PM 40.1819 -73.3486 144° Southeast 363 418 16,300 1,884 Climbing Washington Center
Sun 07:28:06 PM 40.1031 -73.3647 189° South 291 335 18,300 1,462 Climbing Washington Center
Sun 07:29:04 PM 40.0417 -73.4208 215° Southwest 277 319 19,200 974 Climbing Washington Center
Sun 07:30:03 PM 39.9700 -73.4908 217° Southwest 292 336 20,200 1,000 Climbing Washington Center
Sun 07:31:04 PM 39.8961 -73.5578 215° Southwest 320 368 21,200 984 Climbing Washington Center
Sun 07:32:05 PM 39.8161 -73.6331 216° Southwest 325 374 22,200 934 Climbing Washington Center
Sun 07:33:06 PM 39.7444 -73.7025 217° Southwest 330 380 23,100 857 Climbing Washington Center
Sun 07:34:04 PM 39.6706 -73.7744 217° Southwest 335 386 23,900 807 Climbing Washington Center
Sun 07:35:05 PM 39.5967 -73.8464 217° Southwest 335 386 24,700 787 Climbing Washington Center
Sun 07:36:06 PM 39.5203 -73.9128 214° Southwest 341 392 25,500 807 Climbing Washington Center
Sun 07:37:04 PM 39.4464 -73.9844 217° Southwest 341 392 26,300 857 Climbing Washington Center
Sun 07:38:05 PM 39.3722 -74.0533 216° Southwest 336 387 27,200 793 Climbing Washington Center
Sun 07:39:05 PM 39.2981 -74.1219 216° Southwest 336 387 27,900 700 Climbing Washington Center
Sun 07:40:05 PM 39.2261 -74.1903 216° Southwest 336 387 28,600 694 Climbing Washington Center
Sun 07:41:06 PM 39.1497 -74.2586 215° Southwest 336 387 29,300 694 Climbing Washington Center
Sun 07:42:06 PM 39.0794 -74.3294 218° Southwest 336 387 30,000 356 Climbing Washington Center
Sun 07:43:04 PM 39.0053 -74.3950 214° Southwest 336 387 30,000  Level Washington Center
Sun 07:44:05 PM 38.9289 -74.4683 217° Southwest 341 392 30,000  Level Washington Center
Sun 07:45:05 PM 38.8503 -74.5414 216° Southwest 341 392 30,000  Level Washington Center
Sun 07:46:05 PM 38.7675 -74.6172 216° Southwest 356 410 30,000  Level Washington Center
Sun 07:47:06 PM 38.6867 -74.6900 215° Southwest 356 410 30,000  Level Washington Center
Sun 07:48:04 PM 38.6019 -74.7681 216° Southwest 362 417 30,000  Level Washington Center
Sun 07:49:05 PM 38.5189 -74.8381 213° Southwest 367 422 30,000  Level Washington Center
Sun 07:50:06 PM 38.4381 -74.9183 218° Southwest 372 428 30,000  Level Washington Center
Sun 07:51:04 PM 38.3531 -74.9933 215° Southwest 372 428 30,000  Level Washington Center
Sun 07:52:05 PM 38.2700 -75.0708 216° Southwest 377 434 30,000  Level Washington Center
Sun 07:53:06 PM 38.1869 -75.1506 217° Southwest 377 434 30,000  Level Washington Center
Sun 07:54:05 PM 38.1017 -75.2222 213° Southwest 377 434 30,000  Level Washington Center
Sun 07:55:06 PM 38.0183 -75.2967 215° Southwest 377 434 30,000  Level Washington Center
Sun 07:56:04 PM 37.9331 -75.3733 215° Southwest 377 434 30,000  Level Washington Center
Sun 07:57:04 PM 37.8478 -75.4472 214° Southwest 377 434 30,000  Level Washington Center
Sun 07:58:05 PM 37.7622 -75.5261 216° Southwest 377 434 30,000  Level Washington Center
Sun 07:59:05 PM 37.6747 -75.5997 214° Southwest 382 440 30,000  Level Washington Center
Sun 08:00:06 PM 37.5911 -75.6756 216° Southwest 377 434 30,000  Level Washington Center
Sun 08:01:06 PM 37.5036 -75.7489 214° Southwest 377 434 30,000  Level Washington Center
Sun 08:02:04 PM 37.4181 -75.8272 216° Southwest 382 440 30,000  Level Washington Center
Sun 08:03:05 PM 37.3303 -75.9025 214° Southwest 382 440 30,000  Level Washington Center
Sun 08:04:05 PM 37.2444 -75.9806 216° Southwest 382 440 30,000  Level Washington Center
Sun 08:05:06 PM 37.1544 -76.0558 214° Southwest 382 440 30,000  Level Washington Center
Sun 08:06:06 PM 37.0686 -76.1308 215° Southwest 382 440 30,000  Level Washington Center
Sun 08:07:05 PM 36.9847 -76.1950 211° Southwest 387 445 30,000  Level Washington Center
Sun 08:08:05 PM 36.8969 -76.2722 215° Southwest 394 453 30,000  Level Washington Center
Sun 08:09:05 PM 36.8086 -76.3494 215° Southwest 394 453 30,000  Level Washington Center
Sun 08:10:06 PM 36.7228 -76.4211 214° Southwest 394 453 30,000  Level Washington Center
Sun 08:11:06 PM 36.6367 -76.5006 217° Southwest 388 447 30,000  Level Washington Center
Sun 08:12:04 PM 36.5483 -76.5744 214° Southwest 388 447 30,000  Level Washington Center
Sun 08:13:04 PM 36.4603 -76.6508 215° Southwest 383 441 30,000  Level Washington Center
Sun 08:14:05 PM 36.3739 -76.7219 214° Southwest 383 441 30,000  Level Washington Center
Sun 08:15:05 PM 36.2856 -76.7981 215° Southwest 383 441 30,000  Level Washington Center
Sun 08:16:06 PM 36.1950 -76.8711 213° Southwest 383 441 30,000  Level Washington Center
Sun 08:17:04 PM 36.1086 -76.9469 215° Southwest 383 441 30,000  Level Washington Center
Sun 08:18:04 PM 36.0181 -77.0197 213° Southwest 383 441 30,000  Level Washington Center
Sun 08:19:04 PM 35.9297 -77.0953 215° Southwest 383 441 30,000  Level Washington Center
Sun 08:20:05 PM 35.8411 -77.1703 214° Southwest 383 441 30,000  Level Washington Center
Sun 08:21:06 PM 35.7503 -77.2453 214° Southwest 383 441 30,000  Level Washington Center
Sun 08:22:04 PM 35.6617 -77.3203 215° Southwest 383 441 30,000  Level Washington Center
Sun 08:23:04 PM 35.5708 -77.3922 213° Southwest 389 448 30,000  Level Washington Center
Sun 08:24:05 PM 35.4778 -77.4694 214° Southwest 399 459 30,000 -496 Level Washington Center
Sun 08:25:05 PM 35.3847 -77.5461 214° Southwest 404 465 29,000 -992 Descending Washington Center
Sun 08:26:06 PM 35.3019 -77.6306 220° Southwest 404 465 28,000 -504 Descending Washington Center
Sun 08:27:04 PM 35.2192 -77.7150 220° Southwest 397 457 28,000  Level Washington Center
Sun 08:28:06 PM 35.1361 -77.8017 220° Southwest 397 457 28,000  Level Washington Center
Sun 08:29:04 PM 35.0533 -77.8856 220° Southwest 392 451 28,000  Level Washington Center
Sun 08:31:28 PM 34.8550 -78.0961 221° Southwest 391 450 28,000  Level Jacksonville Center
Sun 08:32:28 PM 34.7683 -78.1769 217° Southwest 391 450 28,000  Level Jacksonville Center
Sun 08:33:28 PM 34.6900 -78.2619 222° Southwest 391 450 28,000  Level Jacksonville Center
Sun 08:34:28 PM 34.5978 -78.3578 221° Southwest 396 456 28,000  Level Jacksonville Center
Sun 08:35:28 PM 34.5311 -78.4217 218° Southwest 396 456 28,000 -50 Level Jacksonville Center
Sun 08:36:28 PM 34.4344 -78.5225 221° Southwest 386 444 27,900 -50 Descending Jacksonville Center
Sun 08:37:28 PM 34.3539 -78.6019 219° Southwest 386 444 27,900  Level Jacksonville Center
Sun 08:38:28 PM 34.2856 -78.6781 223° Southwest 374 430 27,900 -500 Level Jacksonville Center
Sun 08:39:28 PM 34.2172 -78.7542 223° Southwest 350 403 26,900 -1,000 Descending Jacksonville Center
Sun 08:40:28 PM 34.1447 -78.8356 223° Southwest 350 403 25,900 -1,000 Descending Jacksonville Center
Sun 08:41:28 PM 34.0722 -78.9192 224° Southwest 355 409 24,900 -950 Descending Jacksonville Center
Sun 08:42:28 PM 33.9956 -79.0053 223° Southwest 366 421 24,000 -950 Descending Jacksonville Center
Sun 08:43:28 PM 33.9189 -79.0911 223° Southwest 371 427 23,000 -500 Descending Jacksonville Center
Sun 08:44:28 PM 33.8442 -79.1744 223° Southwest 376 433 23,000 -900 Level Jacksonville Center
Sun 08:45:28 PM 33.7672 -79.2550 221° Southwest 376 433 21,200 -1,950 Descending Jacksonville Center
Sun 08:46:28 PM 33.6875 -79.3133 211° Southwest 359 413 19,100 -2,050 Descending Jacksonville Center
Sun 08:47:28 PM 33.6100 -79.3714 212° Southwest 346 398 17,100 -2,000 Descending Jacksonville Center
Sun 08:48:28 PM 33.5322 -79.4292 212° Southwest 336 387 15,100 -2,000 Descending Jacksonville Center
Sun 08:49:28 PM 33.4567 -79.4869 213° Southwest 336 387 13,100 -2,000 Descending Jacksonville Center
Sun 08:50:28 PM 33.3789 -79.5447 212° Southwest 331 381 11,100 -1,200 Descending Jacksonville Center
Sun 08:51:28 PM 33.3136 -79.6017 216° Southwest 319 367 10,700 -1,150 Descending Jacksonville Center
Sun 08:52:28 PM 33.2672 -79.6631 228° Southwest 280 322 8,800 -1,650 Descending Jacksonville Center
Sun 08:53:28 PM 33.2247 -79.7217 229° Southwest 255 293 7,400 -1,400 Descending Jacksonville Center
Sun 08:54:28 PM 33.1783 -79.7853 229° Southwest 248 285 6,000 -1,350 Descending Jacksonville Center
Sun 08:55:28 PM 33.1381 -79.8464 232° Southwest 243 280 4,700 -1,300 Descending Jacksonville Center
Sun 08:56:28 PM 33.0997 -79.9047 232° Southwest 237 273 3,400 -1,300 Descending Jacksonville Center
Sun 08:57:28 PM 33.0550 -79.9558 224° Southwest 237 273 2,100 -1,300 Descending Jacksonville Center

Login

Don't have an account? Register now (free) for customized features, flight alerts, and more!